sensor_id;sensor_type;location;lat;lon;timestamp;temperature;humidity
76058;DHT22;64755;45.590;5.286;2022-11-02T00:01:13;16.32;80.26
76058;DHT22;64755;45.590;5.286;2022-11-02T00:03:42;16.40;80.31
76058;DHT22;64755;45.590;5.286;2022-11-02T00:06:08;16.43;80.26
76058;DHT22;64755;45.590;5.286;2022-11-02T00:08:33;16.40;80.21
76058;DHT22;64755;45.590;5.286;2022-11-02T00:10:58;16.44;80.02
76058;DHT22;64755;45.590;5.286;2022-11-02T00:13:24;16.46;80.03
76058;DHT22;64755;45.590;5.286;2022-11-02T00:15:49;16.47;79.93
76058;DHT22;64755;45.590;5.286;2022-11-02T00:18:15;16.50;80.15
76058;DHT22;64755;45.590;5.286;2022-11-02T00:20:42;16.50;79.97
76058;DHT22;64755;45.590;5.286;2022-11-02T00:23:08;16.54;80.13
76058;DHT22;64755;45.590;5.286;2022-11-02T00:25:47;16.51;80.15
76058;DHT22;64755;45.590;5.286;2022-11-02T00:28:14;16.49;80.05
76058;DHT22;64755;45.590;5.286;2022-11-02T00:30:40;16.47;80.02
76058;DHT22;64755;45.590;5.286;2022-11-02T00:33:06;16.40;79.93
76058;DHT22;64755;45.590;5.286;2022-11-02T00:35:32;16.32;79.93
76058;DHT22;64755;45.590;5.286;2022-11-02T00:37:58;16.18;80.06
76058;DHT22;64755;45.590;5.286;2022-11-02T00:40:23;16.06;80.26
76058;DHT22;64755;45.590;5.286;2022-11-02T00:42:49;15.92;80.41
76058;DHT22;64755;45.590;5.286;2022-11-02T00:45:14;15.85;80.51
76058;DHT22;64755;45.590;5.286;2022-11-02T00:47:39;15.73;80.74
76058;DHT22;64755;45.590;5.286;2022-11-02T00:50:05;15.64;80.91
76058;DHT22;64755;45.590;5.286;2022-11-02T00:52:31;15.58;81.02
76058;DHT22;64755;45.590;5.286;2022-11-02T00:54:56;15.53;80.98
76058;DHT22;64755;45.590;5.286;2022-11-02T00:57:21;15.43;81.20
76058;DHT22;64755;45.590;5.286;2022-11-02T00:59:47;15.35;81.16
76058;DHT22;64755;45.590;5.286;2022-11-02T01:02:12;15.28;81.28
76058;DHT22;64755;45.590;5.286;2022-11-02T01:04:38;15.22;81.40
76058;DHT22;64755;45.590;5.286;2022-11-02T01:07:03;15.15;81.61
76058;DHT22;64755;45.590;5.286;2022-11-02T01:09:28;15.12;81.72
76058;DHT22;64755;45.590;5.286;2022-11-02T01:11:54;15.06;81.57
76058;DHT22;64755;45.590;5.286;2022-11-02T01:14:20;15.02;81.68
76058;DHT22;64755;45.590;5.286;2022-11-02T01:16:46;15.01;81.91
76058;DHT22;64755;45.590;5.286;2022-11-02T01:19:11;14.98;82.04
76058;DHT22;64755;45.590;5.286;2022-11-02T01:21:37;14.96;82.03
76058;DHT22;64755;45.590;5.286;2022-11-02T01:24:02;14.94;82.37
76058;DHT22;64755;45.590;5.286;2022-11-02T01:26:28;14.91;82.37
76058;DHT22;64755;45.590;5.286;2022-11-02T01:28:53;14.84;82.51
76058;DHT22;64755;45.590;5.286;2022-11-02T01:31:19;14.81;82.34
76058;DHT22;64755;45.590;5.286;2022-11-02T01:33:45;14.76;82.51
76058;DHT22;64755;45.590;5.286;2022-11-02T01:36:13;14.74;82.36
76058;DHT22;64755;45.590;5.286;2022-11-02T01:38:39;14.76;82.40
76058;DHT22;64755;45.590;5.286;2022-11-02T01:41:05;14.73;82.47
76058;DHT22;64755;45.590;5.286;2022-11-02T01:43:33;14.71;82.55
76058;DHT22;64755;45.590;5.286;2022-11-02T01:46:03;14.73;82.64
76058;DHT22;64755;45.590;5.286;2022-11-02T01:48:35;14.74;82.79
76058;DHT22;64755;45.590;5.286;2022-11-02T01:51:05;14.77;82.75
76058;DHT22;64755;45.590;5.286;2022-11-02T01:53:35;14.77;82.76
76058;DHT22;64755;45.590;5.286;2022-11-02T01:56:03;14.80;82.66
76058;DHT22;64755;45.590;5.286;2022-11-02T01:58:28;14.87;82.75
76058;DHT22;64755;45.590;5.286;2022-11-02T02:00:54;14.92;82.72
76058;DHT22;64755;45.590;5.286;2022-11-02T02:03:20;14.98;82.66
76058;DHT22;64755;45.590;5.286;2022-11-02T02:05:55;15.04;82.59
76058;DHT22;64755;45.590;5.286;2022-11-02T02:08:23;15.05;82.62
76058;DHT22;64755;45.590;5.286;2022-11-02T02:10:49;15.08;82.55
76058;DHT22;64755;45.590;5.286;2022-11-02T02:13:15;15.15;82.60
76058;DHT22;64755;45.590;5.286;2022-11-02T02:15:55;15.18;82.52
76058;DHT22;64755;45.590;5.286;2022-11-02T02:29:21;15.11;82.61
76058;DHT22;64755;45.590;5.286;2022-11-02T02:34:52;15.05;82.90
76058;DHT22;64755;45.590;5.286;2022-11-02T02:37:45;15.05;82.94
76058;DHT22;64755;45.590;5.286;2022-11-02T02:40:19;15.08;82.88
76058;DHT22;64755;45.590;5.286;2022-11-02T02:42:53;15.11;82.84
76058;DHT22;64755;45.590;5.286;2022-11-02T02:48:09;15.04;82.72
76058;DHT22;64755;45.590;5.286;2022-11-02T02:50:58;14.99;82.80
76058;DHT22;64755;45.590;5.286;2022-11-02T02:53:33;14.96;82.81
76058;DHT22;64755;45.590;5.286;2022-11-02T02:56:01;14.92;82.82
76058;DHT22;64755;45.590;5.286;2022-11-02T02:58:31;14.88;82.79
76058;DHT22;64755;45.590;5.286;2022-11-02T03:01:00;14.85;82.91
76058;DHT22;64755;45.590;5.286;2022-11-02T03:03:27;14.78;82.81
76058;DHT22;64755;45.590;5.286;2022-11-02T03:06:12;14.80;82.85
76058;DHT22;64755;45.590;5.286;2022-11-02T03:08:42;14.83;82.90
76058;DHT22;64755;45.590;5.286;2022-11-02T03:11:13;14.81;82.77
76058;DHT22;64755;45.590;5.286;2022-11-02T03:13:51;14.78;82.71
76058;DHT22;64755;45.590;5.286;2022-11-02T03:21:39;14.70;82.91
76058;DHT22;64755;45.590;5.286;2022-11-02T03:24:35;14.71;82.99
76058;DHT22;64755;45.590;5.286;2022-11-02T03:27:19;14.74;82.86
76058;DHT22;64755;45.590;5.286;2022-11-02T03:29:58;14.78;82.80
76058;DHT22;64755;45.590;5.286;2022-11-02T03:32:55;14.77;82.84
76058;DHT22;64755;45.590;5.286;2022-11-02T03:40:47;14.81;82.91
76058;DHT22;64755;45.590;5.286;2022-11-02T03:43:16;14.81;82.95
76058;DHT22;64755;45.590;5.286;2022-11-02T03:45:47;14.80;82.91
76058;DHT22;64755;45.590;5.286;2022-11-02T03:48:13;14.77;82.85
76058;DHT22;64755;45.590;5.286;2022-11-02T03:50:44;14.76;82.92
76058;DHT22;64755;45.590;5.286;2022-11-02T03:56:08;14.70;82.95
76058;DHT22;64755;45.590;5.286;2022-11-02T03:58:35;14.69;83.04
76058;DHT22;64755;45.590;5.286;2022-11-02T04:01:03;14.67;83.05
76058;DHT22;64755;45.590;5.286;2022-11-02T04:03:30;14.66;83.11
76058;DHT22;64755;45.590;5.286;2022-11-02T04:05:57;14.61;83.24
76058;DHT22;64755;45.590;5.286;2022-11-02T04:08:37;14.60;83.28
76058;DHT22;64755;45.590;5.286;2022-11-02T04:11:05;14.53;83.29
76058;DHT22;64755;45.590;5.286;2022-11-02T04:13:49;14.53;83.17
76058;DHT22;64755;45.590;5.286;2022-11-02T04:16:33;14.52;83.14
76058;DHT22;64755;45.590;5.286;2022-11-02T04:18:58;14.52;83.13
76058;DHT22;64755;45.590;5.286;2022-11-02T04:21:42;14.52;83.30
76058;DHT22;64755;45.590;5.286;2022-11-02T04:24:26;14.55;83.29
76058;DHT22;64755;45.590;5.286;2022-11-02T04:27:10;14.56;83.23
76058;DHT22;64755;45.590;5.286;2022-11-02T04:29:36;14.60;83.35
76058;DHT22;64755;45.590;5.286;2022-11-02T04:32:01;14.59;83.00
76058;DHT22;64755;45.590;5.286;2022-11-02T04:34:26;14.61;82.94
76058;DHT22;64755;45.590;5.286;2022-11-02T04:36:52;14.66;82.74
76058;DHT22;64755;45.590;5.286;2022-11-02T04:39:17;14.70;82.80
76058;DHT22;64755;45.590;5.286;2022-11-02T04:41:42;14.74;82.78
76058;DHT22;64755;45.590;5.286;2022-11-02T04:44:12;14.76;82.81
76058;DHT22;64755;45.590;5.286;2022-11-02T04:46:39;14.80;82.86
76058;DHT22;64755;45.590;5.286;2022-11-02T04:49:05;14.80;82.85
76058;DHT22;64755;45.590;5.286;2022-11-02T04:51:31;14.74;82.96
76058;DHT22;64755;45.590;5.286;2022-11-02T04:53:57;14.67;83.11
76058;DHT22;64755;45.590;5.286;2022-11-02T04:56:25;14.61;83.16
76058;DHT22;64755;45.590;5.286;2022-11-02T04:58:56;14.53;83.12
76058;DHT22;64755;45.590;5.286;2022-11-02T05:01:22;14.44;83.05
76058;DHT22;64755;45.590;5.286;2022-11-02T05:03:50;14.39;83.09
76058;DHT22;64755;45.590;5.286;2022-11-02T05:06:17;14.35;83.35
76058;DHT22;64755;45.590;5.286;2022-11-02T05:08:43;14.26;83.46
76058;DHT22;64755;45.590;5.286;2022-11-02T05:11:09;14.21;83.70
76058;DHT22;64755;45.590;5.286;2022-11-02T05:13:36;14.15;83.69
76058;DHT22;64755;45.590;5.286;2022-11-02T05:16:01;14.11;83.66
76058;DHT22;64755;45.590;5.286;2022-11-02T05:18:27;14.05;83.96
76058;DHT22;64755;45.590;5.286;2022-11-02T05:20:55;14.01;83.72
76058;DHT22;64755;45.590;5.286;2022-11-02T05:23:21;13.97;83.97
76058;DHT22;64755;45.590;5.286;2022-11-02T05:25:57;13.91;83.84
76058;DHT22;64755;45.590;5.286;2022-11-02T05:28:23;13.82;83.70
76058;DHT22;64755;45.590;5.286;2022-11-02T05:30:49;13.75;83.94
76058;DHT22;64755;45.590;5.286;2022-11-02T05:33:15;13.74;83.85
76058;DHT22;64755;45.590;5.286;2022-11-02T05:35:41;13.67;83.91
76058;DHT22;64755;45.590;5.286;2022-11-02T05:38:07;13.62;83.94
76058;DHT22;64755;45.590;5.286;2022-11-02T05:40:32;13.59;83.99
76058;DHT22;64755;45.590;5.286;2022-11-02T05:42:59;13.55;84.13
76058;DHT22;64755;45.590;5.286;2022-11-02T05:45:25;13.52;83.88
76058;DHT22;64755;45.590;5.286;2022-11-02T05:47:50;13.52;84.36
76058;DHT22;64755;45.590;5.286;2022-11-02T05:50:15;13.50;84.03
76058;DHT22;64755;45.590;5.286;2022-11-02T05:52:41;13.46;83.83
76058;DHT22;64755;45.590;5.286;2022-11-02T05:55:06;13.40;83.82
76058;DHT22;64755;45.590;5.286;2022-11-02T05:57:32;13.38;83.81
76058;DHT22;64755;45.590;5.286;2022-11-02T05:59:57;13.34;83.69
76058;DHT22;64755;45.590;5.286;2022-11-02T06:02:22;13.28;83.86
76058;DHT22;64755;45.590;5.286;2022-11-02T06:04:48;13.28;83.70
76058;DHT22;64755;45.590;5.286;2022-11-02T06:07:13;13.22;83.65
76058;DHT22;64755;45.590;5.286;2022-11-02T06:09:39;13.21;83.61
76058;DHT22;64755;45.590;5.286;2022-11-02T06:12:04;13.19;83.78
76058;DHT22;64755;45.590;5.286;2022-11-02T06:14:30;13.16;83.63
76058;DHT22;64755;45.590;5.286;2022-11-02T06:16:56;13.18;83.64
76058;DHT22;64755;45.590;5.286;2022-11-02T06:19:21;13.18;83.44
76058;DHT22;64755;45.590;5.286;2022-11-02T06:21:46;13.19;83.73
76058;DHT22;64755;45.590;5.286;2022-11-02T06:24:12;13.18;83.77
76058;DHT22;64755;45.590;5.286;2022-11-02T06:26:37;13.19;83.83
76058;DHT22;64755;45.590;5.286;2022-11-02T06:29:03;13.23;83.85
76058;DHT22;64755;45.590;5.286;2022-11-02T06:31:28;13.25;83.73
76058;DHT22;64755;45.590;5.286;2022-11-02T06:33:53;13.23;83.47
76058;DHT22;64755;45.590;5.286;2022-11-02T06:36:19;13.26;83.50
76058;DHT22;64755;45.590;5.286;2022-11-02T06:38:44;13.25;83.64
76058;DHT22;64755;45.590;5.286;2022-11-02T06:41:10;13.28;83.54
76058;DHT22;64755;45.590;5.286;2022-11-02T06:43:35;13.30;83.47
76058;DHT22;64755;45.590;5.286;2022-11-02T06:46:03;13.34;83.70
76058;DHT22;64755;45.590;5.286;2022-11-02T06:48:28;13.40;83.71
76058;DHT22;64755;45.590;5.286;2022-11-02T06:50:56;13.45;83.54
76058;DHT22;64755;45.590;5.286;2022-11-02T06:53:21;13.50;83.54
76058;DHT22;64755;45.590;5.286;2022-11-02T06:55:54;13.55;83.42
76058;DHT22;64755;45.590;5.286;2022-11-02T06:58:20;13.66;83.27
76058;DHT22;64755;45.590;5.286;2022-11-02T07:00:47;13.71;83.08
76058;DHT22;64755;45.590;5.286;2022-11-02T07:03:12;13.77;83.28
76058;DHT22;64755;45.590;5.286;2022-11-02T07:05:38;13.87;83.08
76058;DHT22;64755;45.590;5.286;2022-11-02T07:08:04;13.95;82.86
76058;DHT22;64755;45.590;5.286;2022-11-02T07:10:30;14.02;82.91
76058;DHT22;64755;45.590;5.286;2022-11-02T07:12:56;14.11;82.74
76058;DHT22;64755;45.590;5.286;2022-11-02T07:15:24;14.19;82.60
76058;DHT22;64755;45.590;5.286;2022-11-02T07:17:51;14.24;82.50
76058;DHT22;64755;45.590;5.286;2022-11-02T07:20:17;14.30;82.39
76058;DHT22;64755;45.590;5.286;2022-11-02T07:22:51;14.42;82.29
76058;DHT22;64755;45.590;5.286;2022-11-02T07:25:17;14.52;82.30
76058;DHT22;64755;45.590;5.286;2022-11-02T07:27:42;14.59;82.20
76058;DHT22;64755;45.590;5.286;2022-11-02T07:30:08;14.61;82.24
76058;DHT22;64755;45.590;5.286;2022-11-02T07:32:41;14.64;82.12
76058;DHT22;64755;45.590;5.286;2022-11-02T07:35:08;14.69;82.09
76058;DHT22;64755;45.590;5.286;2022-11-02T07:37:33;14.76;82.26
76058;DHT22;64755;45.590;5.286;2022-11-02T07:39:59;14.87;82.26
76058;DHT22;64755;45.590;5.286;2022-11-02T07:42:25;14.96;82.21
76058;DHT22;64755;45.590;5.286;2022-11-02T07:44:50;15.08;82.14
76058;DHT22;64755;45.590;5.286;2022-11-02T07:47:15;15.21;82.14
76058;DHT22;64755;45.590;5.286;2022-11-02T07:49:41;15.33;81.77
76058;DHT22;64755;45.590;5.286;2022-11-02T07:52:06;15.46;81.81
76058;DHT22;64755;45.590;5.286;2022-11-02T07:54:32;15.57;81.44
76058;DHT22;64755;45.590;5.286;2022-11-02T07:56:57;15.67;81.06
76058;DHT22;64755;45.590;5.286;2022-11-02T07:59:23;15.77;80.95
76058;DHT22;64755;45.590;5.286;2022-11-02T08:01:48;15.85;80.88
76058;DHT22;64755;45.590;5.286;2022-11-02T08:04:13;15.95;80.59
76058;DHT22;64755;45.590;5.286;2022-11-02T08:06:39;16.05;80.56
76058;DHT22;64755;45.590;5.286;2022-11-02T08:09:04;16.13;80.54
76058;DHT22;64755;45.590;5.286;2022-11-02T08:11:29;16.19;80.17
76058;DHT22;64755;45.590;5.286;2022-11-02T08:13:55;16.18;80.14
76058;DHT22;64755;45.590;5.286;2022-11-02T08:16:20;16.29;79.69
76058;DHT22;64755;45.590;5.286;2022-11-02T08:18:46;16.34;79.62
76058;DHT22;64755;45.590;5.286;2022-11-02T08:21:11;16.49;79.42
76058;DHT22;64755;45.590;5.286;2022-11-02T08:23:36;16.61;79.69
76058;DHT22;64755;45.590;5.286;2022-11-02T08:26:02;16.79;79.26
76058;DHT22;64755;45.590;5.286;2022-11-02T08:28:29;16.96;78.59
76058;DHT22;64755;45.590;5.286;2022-11-02T08:30:57;17.15;78.49
76058;DHT22;64755;45.590;5.286;2022-11-02T08:33:23;17.27;78.05
76058;DHT22;64755;45.590;5.286;2022-11-02T08:35:48;17.39;77.58
76058;DHT22;64755;45.590;5.286;2022-11-02T08:38:14;17.44;77.57
76058;DHT22;64755;45.590;5.286;2022-11-02T08:40:40;17.39;77.16
76058;DHT22;64755;45.590;5.286;2022-11-02T08:43:11;17.30;77.44
76058;DHT22;64755;45.590;5.286;2022-11-02T08:45:38;17.29;77.18
76058;DHT22;64755;45.590;5.286;2022-11-02T08:48:05;17.22;77.04
76058;DHT22;64755;45.590;5.286;2022-11-02T08:50:31;17.08;77.81
76058;DHT22;64755;45.590;5.286;2022-11-02T08:52:56;17.11;77.87
76058;DHT22;64755;45.590;5.286;2022-11-02T08:55:21;17.19;78.00
76058;DHT22;64755;45.590;5.286;2022-11-02T08:57:52;17.27;77.68
76058;DHT22;64755;45.590;5.286;2022-11-02T09:00:20;17.29;78.13
76058;DHT22;64755;45.590;5.286;2022-11-02T09:03:00;17.39;78.19
76058;DHT22;64755;45.590;5.286;2022-11-02T09:05:28;17.48;77.91
76058;DHT22;64755;45.590;5.286;2022-11-02T09:07:59;17.53;77.41
76058;DHT22;64755;45.590;5.286;2022-11-02T09:10:27;17.51;77.35
76058;DHT22;64755;45.590;5.286;2022-11-02T09:12:53;17.50;77.55
76058;DHT22;64755;45.590;5.286;2022-11-02T09:15:18;17.55;76.97
76058;DHT22;64755;45.590;5.286;2022-11-02T09:17:47;17.53;77.49
76058;DHT22;64755;45.590;5.286;2022-11-02T09:20:16;17.63;77.31
76058;DHT22;64755;45.590;5.286;2022-11-02T09:22:42;17.71;77.11
76058;DHT22;64755;45.590;5.286;2022-11-02T09:25:08;17.78;77.16
76058;DHT22;64755;45.590;5.286;2022-11-02T09:27:34;17.79;77.18
76058;DHT22;64755;45.590;5.286;2022-11-02T09:29:59;17.85;77.27
76058;DHT22;64755;45.590;5.286;2022-11-02T09:32:25;17.92;77.06
76058;DHT22;64755;45.590;5.286;2022-11-02T09:34:50;18.08;77.17
76058;DHT22;64755;45.590;5.286;2022-11-02T09:37:16;18.26;76.75
76058;DHT22;64755;45.590;5.286;2022-11-02T09:39:41;18.40;76.25
76058;DHT22;64755;45.590;5.286;2022-11-02T09:42:24;18.54;75.74
76058;DHT22;64755;45.590;5.286;2022-11-02T09:44:56;18.50;75.65
76058;DHT22;64755;45.590;5.286;2022-11-02T09:47:23;18.55;75.81
76058;DHT22;64755;45.590;5.286;2022-11-02T09:49:50;18.51;74.99
76058;DHT22;64755;45.590;5.286;2022-11-02T09:52:24;18.37;75.36
76058;DHT22;64755;45.590;5.286;2022-11-02T09:54:53;18.36;75.85
76058;DHT22;64755;45.590;5.286;2022-11-02T09:57:29;18.26;75.69
76058;DHT22;64755;45.590;5.286;2022-11-02T09:59:55;18.13;75.97
76058;DHT22;64755;45.590;5.286;2022-11-02T10:15:51;17.89;76.20
76058;DHT22;64755;45.590;5.286;2022-11-02T10:18:23;17.91;76.22
76058;DHT22;64755;45.590;5.286;2022-11-02T10:20:51;17.92;75.99
76058;DHT22;64755;45.590;5.286;2022-11-02T10:23:27;17.92;76.41
76058;DHT22;64755;45.590;5.286;2022-11-02T10:25:54;18.01;76.71
76058;DHT22;64755;45.590;5.286;2022-11-02T10:28:30;18.06;76.57
76058;DHT22;64755;45.590;5.286;2022-11-02T10:30:56;18.14;76.84
76058;DHT22;64755;45.590;5.286;2022-11-02T10:33:27;18.23;76.29
76058;DHT22;64755;45.590;5.286;2022-11-02T10:36:21;18.32;76.43
76058;DHT22;64755;45.590;5.286;2022-11-02T10:39:04;18.41;76.05
76058;DHT22;64755;45.590;5.286;2022-11-02T10:44:36;18.51;75.86
76058;DHT22;64755;45.590;5.286;2022-11-02T10:52:35;18.36;76.42
76058;DHT22;64755;45.590;5.286;2022-11-02T10:55:02;18.36;76.38
76058;DHT22;64755;45.590;5.286;2022-11-02T10:57:29;18.36;76.58
76058;DHT22;64755;45.590;5.286;2022-11-02T11:00:26;18.38;76.60
76058;DHT22;64755;45.590;5.286;2022-11-02T11:03:09;18.44;76.01
76058;DHT22;64755;45.590;5.286;2022-11-02T11:05:42;18.40;75.48
76058;DHT22;64755;45.590;5.286;2022-11-02T11:08:42;18.38;75.32
76058;DHT22;64755;45.590;5.286;2022-11-02T11:11:35;18.33;75.20
76058;DHT22;64755;45.590;5.286;2022-11-02T11:14:13;18.33;75.54
76058;DHT22;64755;45.590;5.286;2022-11-02T11:16:43;18.38;74.70
76058;DHT22;64755;45.590;5.286;2022-11-02T11:19:37;18.43;75.14
76058;DHT22;64755;45.590;5.286;2022-11-02T11:24:49;18.55;75.23
76058;DHT22;64755;45.590;5.286;2022-11-02T11:29:57;18.82;74.01
76058;DHT22;64755;45.590;5.286;2022-11-02T11:32:24;18.85;73.87
76058;DHT22;64755;45.590;5.286;2022-11-02T11:34:56;18.92;74.67
76058;DHT22;64755;45.590;5.286;2022-11-02T11:37:23;18.96;73.16
76058;DHT22;64755;45.590;5.286;2022-11-02T11:40:01;19.06;73.25
76058;DHT22;64755;45.590;5.286;2022-11-02T11:42:30;19.19;73.74
76058;DHT22;64755;45.590;5.286;2022-11-02T11:47:34;19.38;73.76
76058;DHT22;64755;45.590;5.286;2022-11-02T11:50:09;19.46;73.39
76058;DHT22;64755;45.590;5.286;2022-11-02T11:52:35;19.53;73.30
76058;DHT22;64755;45.590;5.286;2022-11-02T11:55:26;19.57;71.27
76058;DHT22;64755;45.590;5.286;2022-11-02T12:00:38;19.68;71.94
76058;DHT22;64755;45.590;5.286;2022-11-02T12:03:08;19.75;72.51
76058;DHT22;64755;45.590;5.286;2022-11-02T12:16:58;20.76;69.44
76058;DHT22;64755;45.590;5.286;2022-11-02T12:42:08;21.57;64.35
76058;DHT22;64755;45.590;5.286;2022-11-02T12:55:02;22.02;63.29
76058;DHT22;64755;45.590;5.286;2022-11-02T12:57:34;22.06;62.91
76058;DHT22;64755;45.590;5.286;2022-11-02T13:00:06;22.12;63.13
76058;DHT22;64755;45.590;5.286;2022-11-02T13:02:38;22.28;63.00
76058;DHT22;64755;45.590;5.286;2022-11-02T13:05:14;22.47;62.23
76058;DHT22;64755;45.590;5.286;2022-11-02T13:07:47;22.64;61.41
76058;DHT22;64755;45.590;5.286;2022-11-02T13:10:18;22.95;60.19
76058;DHT22;64755;45.590;5.286;2022-11-02T13:12:47;23.90;59.79
76058;DHT22;64755;45.590;5.286;2022-11-02T13:15:18;25.42;57.47
76058;DHT22;64755;45.590;5.286;2022-11-02T13:17:52;26.96;55.08
76058;DHT22;64755;45.590;5.286;2022-11-02T13:20:23;28.56;54.99
76058;DHT22;64755;45.590;5.286;2022-11-02T13:22:55;30.42;52.54
76058;DHT22;64755;45.590;5.286;2022-11-02T13:25:34;31.67;49.17
76058;DHT22;64755;45.590;5.286;2022-11-02T13:28:05;32.43;47.75
76058;DHT22;64755;45.590;5.286;2022-11-02T13:30:35;32.88;48.77
76058;DHT22;64755;45.590;5.286;2022-11-02T13:33:13;34.17;48.81
76058;DHT22;64755;45.590;5.286;2022-11-02T13:35:40;35.38;47.66
76058;DHT22;64755;45.590;5.286;2022-11-02T13:40:56;35.80;44.68
76058;DHT22;64755;45.590;5.286;2022-11-02T13:51:25;36.17;44.04
76058;DHT22;64755;45.590;5.286;2022-11-02T13:53:57;36.75;44.48
76058;DHT22;64755;45.590;5.286;2022-11-02T13:56:26;37.37;43.93
76058;DHT22;64755;45.590;5.286;2022-11-02T13:59:15;38.03;43.41
76058;DHT22;64755;45.590;5.286;2022-11-02T14:01:42;38.27;41.78
76058;DHT22;64755;45.590;5.286;2022-11-02T14:04:13;38.14;41.60
76058;DHT22;64755;45.590;5.286;2022-11-02T14:09:36;38.48;41.48
76058;DHT22;64755;45.590;5.286;2022-11-02T14:18:10;36.82;41.35
76058;DHT22;64755;45.590;5.286;2022-11-02T14:20:44;36.52;41.30
76058;DHT22;64755;45.590;5.286;2022-11-02T14:30:48;36.00;41.63
76058;DHT22;64755;45.590;5.286;2022-11-02T14:33:23;35.60;41.10
76058;DHT22;64755;45.590;5.286;2022-11-02T14:35:59;35.21;41.84
76058;DHT22;64755;45.590;5.286;2022-11-02T14:41:55;34.31;41.83
76058;DHT22;64755;45.590;5.286;2022-11-02T14:47:08;33.51;43.39
76058;DHT22;64755;45.590;5.286;2022-11-02T14:49:48;33.21;43.39
76058;DHT22;64755;45.590;5.286;2022-11-02T14:55:08;32.62;43.13
76058;DHT22;64755;45.590;5.286;2022-11-02T14:57:37;32.21;43.48
76058;DHT22;64755;45.590;5.286;2022-11-02T15:00:17;31.74;44.43
76058;DHT22;64755;45.590;5.286;2022-11-02T15:02:43;31.46;44.88
76058;DHT22;64755;45.590;5.286;2022-11-02T15:05:25;31.56;44.70
76058;DHT22;64755;45.590;5.286;2022-11-02T15:07:55;31.62;45.10
76058;DHT22;64755;45.590;5.286;2022-11-02T15:15:45;31.07;45.13
76058;DHT22;64755;45.590;5.286;2022-11-02T15:23:42;30.86;45.87
76058;DHT22;64755;45.590;5.286;2022-11-02T15:26:13;30.45;46.95
76058;DHT22;64755;45.590;5.286;2022-11-02T15:28:42;29.94;47.12
76058;DHT22;64755;45.590;5.286;2022-11-02T15:31:19;29.42;47.47
76058;DHT22;64755;45.590;5.286;2022-11-02T15:33:50;29.03;48.48
76058;DHT22;64755;45.590;5.286;2022-11-02T15:36:35;28.47;48.55
76058;DHT22;64755;45.590;5.286;2022-11-02T15:39:05;27.71;49.35
76058;DHT22;64755;45.590;5.286;2022-11-02T15:41:44;26.78;50.10
76058;DHT22;64755;45.590;5.286;2022-11-02T15:55:20;22.82;55.78
76058;DHT22;64755;45.590;5.286;2022-11-02T15:57:59;22.31;57.36
76058;DHT22;64755;45.590;5.286;2022-11-02T16:00:28;21.81;57.97
76058;DHT22;64755;45.590;5.286;2022-11-02T16:03:07;21.26;58.78
76058;DHT22;64755;45.590;5.286;2022-11-02T16:05:44;20.83;59.94
76058;DHT22;64755;45.590;5.286;2022-11-02T16:08:21;20.44;60.60
76058;DHT22;64755;45.590;5.286;2022-11-02T16:10:48;20.10;61.55
76058;DHT22;64755;45.590;5.286;2022-11-02T16:13:17;19.76;62.15
76058;DHT22;64755;45.590;5.286;2022-11-02T16:15:43;19.46;62.12
76058;DHT22;64755;45.590;5.286;2022-11-02T16:18:33;19.16;63.20
76058;DHT22;64755;45.590;5.286;2022-11-02T16:21:02;18.88;63.64
76058;DHT22;64755;45.590;5.286;2022-11-02T16:23:30;18.61;64.57
76058;DHT22;64755;45.590;5.286;2022-11-02T16:25:58;18.38;65.07
76058;DHT22;64755;45.590;5.286;2022-11-02T16:30:58;17.92;66.18
76058;DHT22;64755;45.590;5.286;2022-11-02T16:33:27;17.78;66.82
76058;DHT22;64755;45.590;5.286;2022-11-02T16:35:53;17.58;67.23
76058;DHT22;64755;45.590;5.286;2022-11-02T16:38:19;17.39;68.00
76058;DHT22;64755;45.590;5.286;2022-11-02T16:40:46;17.24;68.30
76058;DHT22;64755;45.590;5.286;2022-11-02T16:43:12;17.11;68.90
76058;DHT22;64755;45.590;5.286;2022-11-02T16:45:38;16.95;69.24
76058;DHT22;64755;45.590;5.286;2022-11-02T16:48:27;16.81;69.52
76058;DHT22;64755;45.590;5.286;2022-11-02T16:50:59;16.71;69.79
76058;DHT22;64755;45.590;5.286;2022-11-02T16:53:27;16.59;70.10
76058;DHT22;64755;45.590;5.286;2022-11-02T16:55:54;16.50;70.12
76058;DHT22;64755;45.590;5.286;2022-11-02T16:58:27;16.37;70.36
76058;DHT22;64755;45.590;5.286;2022-11-02T17:03:25;16.18;71.35
76058;DHT22;64755;45.590;5.286;2022-11-02T17:05:51;16.09;71.46
76058;DHT22;64755;45.590;5.286;2022-11-02T17:08:34;16.01;71.68
76058;DHT22;64755;45.590;5.286;2022-11-02T17:11:02;15.92;71.92
76058;DHT22;64755;45.590;5.286;2022-11-02T17:13:31;15.84;72.21
76058;DHT22;64755;45.590;5.286;2022-11-02T17:16:17;15.78;72.35
76058;DHT22;64755;45.590;5.286;2022-11-02T17:18:43;15.73;72.36
76058;DHT22;64755;45.590;5.286;2022-11-02T17:23:43;15.60;72.72
76058;DHT22;64755;45.590;5.286;2022-11-02T17:31:55;15.38;73.15
76058;DHT22;64755;45.590;5.286;2022-11-02T17:34:21;15.33;73.13
76058;DHT22;64755;45.590;5.286;2022-11-02T17:36:48;15.26;73.41
76058;DHT22;64755;45.590;5.286;2022-11-02T17:39:18;15.18;73.38
76058;DHT22;64755;45.590;5.286;2022-11-02T17:41:48;15.12;73.66
76058;DHT22;64755;45.590;5.286;2022-11-02T17:44:34;15.06;73.92
76058;DHT22;64755;45.590;5.286;2022-11-02T17:46:59;15.01;73.76
76058;DHT22;64755;45.590;5.286;2022-11-02T17:49:25;14.98;74.02
76058;DHT22;64755;45.590;5.286;2022-11-02T17:51:50;14.92;74.38
76058;DHT22;64755;45.590;5.286;2022-11-02T17:54:16;14.87;74.36
76058;DHT22;64755;45.590;5.286;2022-11-02T17:56:42;14.81;74.75
76058;DHT22;64755;45.590;5.286;2022-11-02T17:59:08;14.78;74.52
76058;DHT22;64755;45.590;5.286;2022-11-02T18:01:33;14.73;74.32
76058;DHT22;64755;45.590;5.286;2022-11-02T18:03:58;14.70;74.26
76058;DHT22;64755;45.590;5.286;2022-11-02T18:06:24;14.64;74.38
76058;DHT22;64755;45.590;5.286;2022-11-02T18:08:49;14.63;74.29
76058;DHT22;64755;45.590;5.286;2022-11-02T18:11:33;14.59;74.35
76058;DHT22;64755;45.590;5.286;2022-11-02T18:13:59;14.56;74.61
76058;DHT22;64755;45.590;5.286;2022-11-02T18:16:24;14.52;74.48
76058;DHT22;64755;45.590;5.286;2022-11-02T18:18:50;14.50;74.59
76058;DHT22;64755;45.590;5.286;2022-11-02T18:21:15;14.46;74.76
76058;DHT22;64755;45.590;5.286;2022-11-02T18:23:40;14.43;74.49
76058;DHT22;64755;45.590;5.286;2022-11-02T18:26:08;14.39;74.51
76058;DHT22;64755;45.590;5.286;2022-11-02T18:28:35;14.36;74.68
76058;DHT22;64755;45.590;5.286;2022-11-02T18:31:00;14.29;74.68
76058;DHT22;64755;45.590;5.286;2022-11-02T18:33:26;14.28;74.71
76058;DHT22;64755;45.590;5.286;2022-11-02T18:35:51;14.25;75.07
76058;DHT22;64755;45.590;5.286;2022-11-02T18:38:16;14.24;74.91
76058;DHT22;64755;45.590;5.286;2022-11-02T18:40:42;14.19;75.07
76058;DHT22;64755;45.590;5.286;2022-11-02T18:43:07;14.15;75.19